»·PEaware :: N934TX KAST-KBLI

N934TX :: KAST-KBLI

FLIGHT INFORMATION

Flight Status: Arrived
Operator: Privately registered:
United States
More flights under this callsign
Pilot: David D. (37029)
Aircraft: CESSNA T210 TURBO CENTURION
(T210)
More flights by this aircraft type
Origin: KAST Astoria Regl
United States
Destination: KBLI Bellingham Intl
United States
More flights between these airports :: More routes between these airports
Route: AST V187 OLM V165 CVV ZONUV
File this flight plan on PilotEdge
Remarks:
Altitude:
(Current/Filed)
7,000ft
Speed:
(Current/Filed)
180kts
Departed: 11-Jan-23 04:11 PM
Arrived: 11-Jan-23 05:15 PM
Distance/Time
Traveled:
167nm/1:04
Distance/Time
To Go:
Arrived

Flight Plot

Page will automatically refresh every two minutes.

Flight plan parsing failed; only flown route is shown


Map Options




Map Legend


Flown Route
Filed Route
Departure Airport
Arrival Airport
Navaid (VOR, NDB)
Fix

Horizontal Profiles

Position Reports

Time Latitude Longitude Heading Altitude Ground
Speed
11-Jan-23 15:51 46.156693 -123.881189 242 15ft 0kts
11-Jan-23 15:52 46.156693 -123.881189 242 15ft 0kts
11-Jan-23 15:53 46.156693 -123.881189 242 15ft 0kts
11-Jan-23 15:54 46.156693 -123.881189 242 15ft 0kts
11-Jan-23 15:55 46.156693 -123.881189 242 15ft 0kts
11-Jan-23 15:56 46.156693 -123.881189 242 15ft 0kts
11-Jan-23 15:57 46.156693 -123.881189 242 15ft 0kts
11-Jan-23 15:58 46.156693 -123.881189 242 15ft 0kts
11-Jan-23 15:59 46.156693 -123.881189 242 15ft 0kts
11-Jan-23 16:00 46.156693 -123.881189 242 15ft 0kts
11-Jan-23 16:01 46.156693 -123.881189 242 15ft 0kts
11-Jan-23 16:02 46.156693 -123.881189 242 15ft 0kts
11-Jan-23 16:03 46.156693 -123.881189 242 15ft 0kts
11-Jan-23 16:04 46.157020 -123.881662 333 15ft 3kts
11-Jan-23 16:05 46.157849 -123.883470 299 15ft 4kts
11-Jan-23 16:06 46.158506 -123.884992 297 14ft 4kts
11-Jan-23 16:07 46.158839 -123.885806 302 14ft 0kts
11-Jan-23 16:08 46.158839 -123.885806 302 14ft 0kts
11-Jan-23 16:09 46.158972 -123.886134 300 14ft 9kts
11-Jan-23 16:10 46.159319 -123.881336 96 17ft 74kts
11-Jan-23 16:11 46.162644 -123.849209 12 932ft 101kts
11-Jan-23 16:12 46.191862 -123.836961 17 2088ft 121kts
11-Jan-23 16:13 46.222103 -123.810557 44 3033ft 135kts
11-Jan-23 16:14 46.250472 -123.774662 40 3928ft 136kts
11-Jan-23 16:15 46.279653 -123.740041 39 4824ft 136kts
11-Jan-23 16:16 46.308838 -123.705632 39 5720ft 135kts
11-Jan-23 16:17 46.338387 -123.670383 39 6441ft 146kts
11-Jan-23 16:18 46.371127 -123.631267 39 6960ft 156kts
11-Jan-23 16:19 46.406784 -123.588664 39 7002ft 173kts
11-Jan-23 16:20 46.444213 -123.543410 40 7000ft 176kts
11-Jan-23 16:21 46.481961 -123.498096 39 7000ft 176kts
11-Jan-23 16:22 46.519882 -123.452531 39 7000ft 177kts
11-Jan-23 16:23 46.557942 -123.406578 39 7000ft 179kts
11-Jan-23 16:25 46.596194 -123.360498 39 7000ft 179kts
11-Jan-23 16:26 46.634412 -123.314212 40 7000ft 179kts
11-Jan-23 16:27 46.672631 -123.267817 40 6999ft 177kts
11-Jan-23 16:28 46.710409 -123.221888 40 7000ft 177kts
11-Jan-23 16:29 46.748234 -123.175826 40 7000ft 177kts
11-Jan-23 16:30 46.786080 -123.129657 40 7000ft 177kts
11-Jan-23 16:31 46.823740 -123.083622 40 7000ft 177kts
11-Jan-23 16:32 46.861531 -123.037336 40 7000ft 177kts
11-Jan-23 16:33 46.899321 -122.990965 40 7000ft 177kts
11-Jan-23 16:34 46.937051 -122.944728 40 7000ft 177kts
11-Jan-23 16:35 46.976305 -122.901928 13 6996ft 177kts
11-Jan-23 16:36 47.025294 -122.894350 4 7000ft 177kts
11-Jan-23 16:37 47.074443 -122.888124 5 7000ft 177kts
11-Jan-23 16:38 47.123547 -122.881475 5 7000ft 177kts
11-Jan-23 16:39 47.172618 -122.874681 5 7000ft 177kts
11-Jan-23 16:40 47.221636 -122.867881 5 7000ft 177kts
11-Jan-23 16:41 47.270712 -122.861146 5 7000ft 177kts
11-Jan-23 16:42 47.319926 -122.854439 5 7000ft 177kts
11-Jan-23 16:43 47.368856 -122.847702 5 7000ft 177kts
11-Jan-23 16:44 47.417961 -122.840923 5 7000ft 177kts
11-Jan-23 16:45 47.467078 -122.834130 5 7000ft 177kts
11-Jan-23 16:46 47.516117 -122.827320 5 7000ft 177kts
11-Jan-23 16:46 47.557193 -122.821605 5 7000ft 177kts
11-Jan-23 16:48 47.614480 -122.813635 5 7000ft 177kts
11-Jan-23 16:49 47.663506 -122.806799 5 7000ft 177kts
11-Jan-23 16:50 47.712511 -122.799953 5 7000ft 177kts
11-Jan-23 16:51 47.761609 -122.793081 5 7000ft 177kts
11-Jan-23 16:51 47.802636 -122.787326 5 7000ft 177kts
11-Jan-23 16:52 47.851782 -122.780423 5 7000ft 177kts
11-Jan-23 16:53 47.900726 -122.773538 5 7000ft 177kts
11-Jan-23 16:55 47.958068 -122.765452 5 7000ft 177kts
11-Jan-23 16:56 48.007190 -122.758504 5 7000ft 177kts
11-Jan-23 16:56 48.048055 -122.752713 5 7000ft 177kts
11-Jan-23 16:57 48.096540 -122.740706 15 7000ft 177kts
11-Jan-23 16:58 48.143841 -122.719932 16 7000ft 177kts
11-Jan-23 17:00 48.199137 -122.696182 15 7000ft 177kts
11-Jan-23 17:00 48.238934 -122.679187 16 6827ft 182kts
11-Jan-23 17:01 48.283644 -122.647406 29 6627ft 171kts
11-Jan-23 17:02 48.333337 -122.626677 11 5647ft 192kts
11-Jan-23 17:03 48.384676 -122.608104 14 4875ft 185kts
11-Jan-23 17:04 48.434645 -122.588920 14 4133ft 183kts
11-Jan-23 17:05 48.482850 -122.570225 14 3625ft 177kts
11-Jan-23 17:06 48.530192 -122.552103 14 3202ft 171kts
11-Jan-23 17:07 48.573913 -122.536832 1 3196ft 153kts
11-Jan-23 17:08 48.614776 -122.536845 359 3260ft 146kts
11-Jan-23 17:09 48.657520 -122.536963 359 2695ft 166kts
11-Jan-23 17:10 48.703403 -122.537227 359 1916ft 159kts
11-Jan-23 17:11 48.743800 -122.537486 358 1011ft 131kts
11-Jan-23 17:12 48.772321 -122.537462 0 415ft 84kts
11-Jan-23 17:13 48.792486 -122.537514 358 160ft 41kts
11-Jan-23 17:14 48.795319 -122.536578 138 159ft 2kts
11-Jan-23 17:15 48.794204 -122.535223 143 160ft 4kts
11-Jan-23 17:16 48.792909 -122.533711 141 158ft 6kts
11-Jan-23 17:17 48.792502 -122.533828 229 157ft 0kts
11-Jan-23 17:18 48.792502 -122.533828 229 157ft 0kts

Navigation Log

Ident Type
Flight plan parsing failed, navigation log unavailable